createdAt,value
2022-09-04T00:02:13.928Z,13.38
2022-09-04T00:05:17.267Z,13.43
2022-09-04T00:08:19.373Z,13.35
2022-09-04T00:11:01.282Z,13.34
2022-09-04T00:13:42.765Z,13.29
2022-09-04T00:16:27.855Z,13.34
2022-09-04T00:19:03.986Z,13.47
2022-09-04T00:21:54.727Z,13.50
2022-09-04T00:24:36.717Z,13.64
2022-09-04T00:27:17.930Z,13.71
2022-09-04T00:30:13.875Z,13.69
2022-09-04T00:33:19.222Z,13.73
2022-09-04T00:36:01.998Z,13.68
2022-09-04T00:38:43.443Z,13.71
2022-09-04T00:41:16.053Z,13.59
2022-09-04T00:44:00.911Z,13.53
2022-09-04T00:46:39.623Z,13.57
2022-09-04T00:49:18.286Z,13.57
2022-09-04T00:52:08.049Z,13.59
2022-09-04T00:54:37.539Z,13.36
2022-09-04T00:57:40.912Z,13.22
2022-09-04T01:00:08.380Z,13.18
2022-09-04T01:03:02.695Z,13.05
2022-09-04T01:05:47.993Z,12.90
2022-09-04T01:08:27.180Z,12.79
2022-09-04T01:11:21.452Z,12.81
2022-09-04T01:13:50.984Z,12.78
2022-09-04T01:16:27.776Z,12.83
2022-09-04T01:19:25.181Z,12.81
2022-09-04T01:21:57.558Z,12.80
2022-09-04T01:24:36.204Z,12.77
2022-09-04T01:27:15.369Z,12.79
2022-09-04T01:30:04.584Z,12.84
2022-09-04T01:32:52.688Z,12.80
2022-09-04T01:35:48.143Z,12.71
2022-09-04T01:38:45.529Z,12.81
2022-09-04T01:41:22.250Z,12.77
2022-09-04T01:43:49.051Z,12.81
2022-09-04T01:46:55.167Z,12.88
2022-09-04T01:49:27.807Z,13.00
2022-09-04T01:52:05.854Z,12.96
2022-09-04T01:54:58.368Z,13.05
2022-09-04T01:57:24.795Z,13.07
2022-09-04T02:00:12.861Z,13.04
2022-09-04T02:02:39.384Z,12.99
2022-09-04T02:05:20.414Z,13.03
2022-09-04T02:07:54.834Z,13.07
2022-09-04T02:10:31.836Z,13.07
2022-09-04T02:13:22.444Z,13.04
2022-09-04T02:15:58.670Z,13.08
2022-09-04T02:18:43.376Z,13.04
2022-09-04T02:21:33.091Z,12.98
2022-09-04T02:24:02.530Z,12.88
2022-09-04T02:26:51.363Z,12.84
2022-09-04T02:29:30.027Z,12.85
2022-09-04T02:32:09.740Z,12.78
2022-09-04T02:35:02.822Z,12.76
2022-09-04T02:37:43.310Z,12.68
2022-09-04T02:40:48.628Z,12.80
2022-09-04T02:43:40.999Z,12.78
2022-09-04T02:46:29.498Z,12.77
2022-09-04T02:48:57.656Z,12.83
2022-09-04T02:51:36.336Z,12.80
2022-09-04T02:54:10.892Z,12.92
2022-09-04T02:56:58.740Z,13.06
2022-09-04T02:59:52.821Z,13.26
2022-09-04T03:02:41.722Z,13.14
2022-09-04T03:05:19.865Z,13.17
2022-09-04T03:08:00.247Z,13.28
2022-09-04T03:10:53.502Z,13.25
2022-09-04T03:13:28.168Z,13.20
2022-09-04T03:16:00.542Z,13.25
2022-09-04T03:18:56.429Z,13.24
2022-09-04T03:21:32.472Z,13.16
2022-09-04T03:24:06.262Z,13.06
2022-09-04T03:26:39.533Z,13.13
2022-09-04T03:29:15.127Z,13.13
2022-09-04T03:31:47.797Z,13.07
2022-09-04T03:34:26.494Z,13.09
2022-09-04T03:36:59.219Z,13.04
2022-09-04T03:39:32.531Z,12.88
2022-09-04T03:42:15.241Z,12.92
2022-09-04T03:45:00.959Z,12.85
2022-09-04T03:47:52.301Z,12.87
2022-09-04T03:50:52.254Z,12.97
2022-09-04T03:53:40.827Z,12.84
2022-09-04T03:56:26.574Z,12.93
2022-09-04T03:59:03.366Z,12.89
2022-09-04T04:01:53.011Z,12.87
2022-09-04T04:04:44.180Z,12.98
2022-09-04T04:07:47.946Z,13.04
2022-09-04T04:10:35.497Z,13.13
2022-09-04T04:13:23.361Z,13.08
2022-09-04T04:15:55.955Z,13.11
2022-09-04T04:18:42.996Z,13.20
2022-09-04T04:21:18.816Z,13.02
2022-09-04T04:24:18.060Z,13.18
2022-09-04T04:27:15.106Z,13.21
2022-09-04T04:29:59.855Z,13.15
2022-09-04T04:32:38.691Z,13.23
2022-09-04T04:35:14.160Z,13.29
2022-09-04T04:38:20.532Z,13.29
2022-09-04T04:41:21.476Z,13.20
2022-09-04T04:43:59.900Z,13.07
2022-09-04T04:46:38.686Z,12.94
2022-09-04T04:49:29.824Z,12.92
2022-09-04T04:51:59.150Z,12.98
2022-09-04T04:54:44.123Z,13.06
2022-09-04T04:57:18.086Z,13.14
2022-09-04T05:00:27.753Z,13.18
2022-09-04T05:03:19.157Z,13.31
2022-09-04T05:06:10.190Z,13.38
2022-09-04T05:08:45.718Z,13.41
2022-09-04T05:11:37.314Z,13.51
2022-09-04T05:14:41.040Z,13.50
2022-09-04T05:17:23.716Z,13.46
2022-09-04T05:20:28.511Z,13.46
2022-09-04T05:23:08.457Z,13.40
2022-09-04T05:25:53.710Z,13.56
2022-09-04T05:28:26.511Z,13.50
2022-09-04T05:31:11.736Z,13.69
2022-09-04T05:34:08.814Z,13.76
2022-09-04T05:36:54.604Z,13.94
2022-09-04T05:39:44.748Z,14.14
2022-09-04T05:42:38.867Z,14.18
2022-09-04T05:45:27.017Z,14.10
2022-09-04T05:48:12.217Z,14.26
2022-09-04T05:50:54.366Z,14.39
2022-09-04T05:53:28.407Z,14.45
2022-09-04T05:56:04.207Z,14.65
2022-09-04T05:59:05.395Z,14.96
2022-09-04T06:01:51.635Z,15.12
2022-09-04T06:04:30.573Z,14.97
2022-09-04T06:07:02.784Z,14.97
2022-09-04T06:10:07.412Z,15.00
2022-09-04T06:13:35.556Z,15.27
2022-09-04T06:16:19.801Z,15.50
2022-09-04T06:19:04.965Z,15.70
2022-09-04T06:22:03.360Z,15.96
2022-09-04T06:24:47.243Z,15.93
2022-09-04T06:27:22.780Z,16.41
2022-09-04T06:30:17.830Z,16.55
2022-09-04T06:32:44.489Z,16.97
2022-09-04T06:35:33.277Z,16.86
2022-09-04T06:38:14.706Z,17.38
2022-09-04T06:40:57.177Z,17.21
2022-09-04T06:43:55.974Z,17.76
2022-09-04T06:46:27.244Z,17.83
2022-09-04T06:49:07.580Z,18.03
2022-09-04T06:51:55.796Z,17.92
2022-09-04T06:54:34.023Z,18.24
2022-09-04T06:57:35.393Z,18.05
2022-09-04T07:00:13.240Z,18.60
2022-09-04T07:02:39.861Z,18.75
2022-09-04T07:05:09.845Z,18.64
2022-09-04T07:08:10.563Z,18.82
2022-09-04T07:10:44.263Z,18.88
2022-09-04T07:13:48.171Z,19.33
2022-09-04T07:16:27.029Z,19.36
2022-09-04T07:19:30.093Z,19.18
2022-09-04T07:22:11.715Z,19.25
2022-09-04T07:25:17.305Z,19.53
2022-09-04T07:27:43.853Z,19.64
2022-09-04T07:30:13.804Z,19.76
2022-09-04T07:32:40.382Z,19.65
2022-09-04T07:35:11.117Z,19.49
2022-09-04T07:38:03.811Z,19.77
2022-09-04T07:40:39.220Z,19.62
2022-09-04T07:43:08.373Z,19.72
2022-09-04T07:45:38.823Z,19.76
2022-09-04T07:48:20.986Z,19.65
2022-09-04T07:51:03.210Z,19.47
2022-09-04T07:54:05.047Z,19.49
2022-09-04T07:56:54.937Z,19.43
2022-09-04T07:59:36.671Z,19.62
2022-09-04T08:02:06.304Z,19.84
2022-09-04T08:04:51.285Z,19.74
2022-09-04T08:07:27.698Z,19.55
2022-09-04T08:10:03.335Z,19.47
2022-09-04T08:12:51.265Z,19.39
2022-09-04T08:15:22.093Z,19.55
2022-09-04T08:17:57.961Z,19.48
2022-09-04T08:20:28.994Z,19.41
2022-09-04T08:23:09.743Z,19.26
2022-09-04T08:26:33.838Z,19.50
2022-09-04T08:29:08.678Z,19.67
2022-09-04T08:31:42.561Z,19.90
2022-09-04T08:34:55.642Z,20.35
2022-09-04T08:37:48.502Z,20.49
2022-09-04T08:40:15.078Z,20.63
2022-09-04T08:43:19.059Z,20.78
2022-09-04T08:46:03.886Z,20.96
2022-09-04T08:48:56.497Z,21.14
2022-09-04T08:51:34.190Z,21.30
2022-09-04T08:54:31.207Z,21.43
2022-09-04T08:57:36.041Z,21.58
2022-09-04T09:00:12.697Z,21.84
2022-09-04T09:03:04.981Z,21.91
2022-09-04T09:05:53.777Z,22.13
2022-09-04T09:09:12.783Z,22.30
2022-09-04T09:12:12.562Z,22.40
2022-09-04T09:15:00.756Z,22.53
2022-09-04T09:17:49.088Z,22.14
2022-09-04T09:20:24.681Z,22.21
2022-09-04T09:23:09.877Z,22.33
2022-09-04T09:26:31.239Z,22.58
2022-09-04T09:29:22.485Z,22.75
2022-09-04T09:32:20.223Z,22.98
2022-09-04T09:35:08.796Z,23.25
2022-09-04T09:38:09.137Z,23.28
2022-09-04T09:40:44.439Z,23.19
2022-09-04T09:43:42.224Z,23.04
2022-09-04T09:46:23.997Z,23.37
2022-09-04T09:49:19.993Z,23.48
2022-09-04T09:52:30.648Z,23.87
2022-09-04T09:55:19.095Z,24.00
2022-09-04T09:58:05.900Z,24.12
2022-09-04T10:01:00.133Z,24.45
2022-09-04T10:03:59.410Z,24.48
2022-09-04T10:06:49.545Z,24.59
2022-09-04T10:09:41.214Z,24.57
2022-09-04T10:12:35.481Z,24.71
2022-09-04T10:15:16.989Z,24.74
2022-09-04T10:18:24.054Z,24.85
2022-09-04T10:21:20.652Z,24.75
2022-09-04T10:24:18.201Z,24.93
2022-09-04T10:27:18.541Z,24.72
2022-09-04T10:29:45.140Z,24.96
2022-09-04T10:32:34.694Z,25.11
2022-09-04T10:35:25.460Z,25.04
2022-09-04T10:38:16.130Z,24.86
2022-09-04T10:40:54.257Z,24.84
2022-09-04T10:43:45.177Z,25.10
2022-09-04T10:46:56.024Z,24.97
2022-09-04T10:49:34.515Z,25.21
2022-09-04T10:52:35.813Z,25.61
2022-09-04T10:55:17.792Z,26.05
2022-09-04T10:57:55.416Z,26.53
2022-09-04T11:00:26.823Z,27.02
2022-09-04T11:03:24.966Z,27.10
2022-09-04T11:06:02.344Z,26.74
2022-09-04T11:08:42.584Z,26.50
2022-09-04T11:11:35.622Z,26.65
2022-09-04T11:14:17.647Z,26.43
2022-09-04T11:17:05.582Z,26.53
2022-09-04T11:19:44.501Z,26.41
2022-09-04T11:22:34.983Z,26.42
2022-09-04T11:25:33.339Z,26.56
2022-09-04T11:28:34.767Z,26.78
2022-09-04T11:31:33.455Z,26.68
2022-09-04T11:34:15.374Z,26.87
2022-09-04T11:37:15.401Z,27.06
2022-09-04T11:40:32.229Z,26.54
2022-09-04T11:43:07.427Z,26.28
2022-09-04T11:45:55.918Z,26.24
2022-09-04T11:48:47.407Z,26.57
2022-09-04T11:51:40.051Z,26.94
2022-09-04T11:54:15.460Z,27.12
2022-09-04T11:56:58.669Z,27.42
2022-09-04T12:00:01.690Z,27.37
2022-09-04T12:02:47.620Z,27.42
2022-09-04T12:05:16.124Z,27.45
2022-09-04T12:08:08.219Z,26.90
2022-09-04T12:10:49.731Z,27.02
2022-09-04T12:14:04.115Z,27.14
2022-09-04T12:17:15.953Z,27.01
2022-09-04T12:20:09.965Z,27.00
2022-09-04T12:22:52.410Z,26.68
2022-09-04T12:25:38.627Z,26.18
2022-09-04T12:28:27.990Z,26.43
2022-09-04T12:31:00.670Z,26.42
2022-09-04T12:33:37.216Z,26.35
2022-09-04T12:36:33.310Z,26.59
2022-09-04T12:39:18.579Z,26.33
2022-09-04T12:42:10.414Z,26.09
2022-09-04T12:44:40.005Z,26.15
2022-09-04T12:47:14.088Z,25.90
2022-09-04T12:49:55.634Z,25.58
2022-09-04T12:52:31.111Z,25.50
2022-09-04T12:55:33.526Z,25.54
2022-09-04T12:58:12.012Z,25.70
2022-09-04T13:01:08.487Z,25.75
2022-09-04T13:03:47.233Z,25.87
2022-09-04T13:06:33.000Z,25.88
2022-09-04T13:09:19.184Z,25.92
2022-09-04T13:12:20.883Z,25.83
2022-09-04T13:15:00.904Z,25.86
2022-09-04T13:17:43.587Z,26.06
2022-09-04T13:20:10.694Z,26.28
2022-09-04T13:23:05.341Z,26.48
2022-09-04T13:25:42.339Z,26.47
2022-09-04T13:28:12.175Z,26.65
2022-09-04T13:31:05.625Z,26.77
2022-09-04T13:33:54.936Z,27.19
2022-09-04T13:36:36.837Z,27.30
2022-09-04T13:39:29.698Z,26.33
2022-09-04T13:42:42.750Z,25.70
2022-09-04T13:45:23.770Z,25.50
2022-09-04T13:47:59.598Z,25.10
2022-09-04T13:50:52.259Z,24.74
2022-09-04T13:53:36.366Z,24.28
2022-09-04T13:56:16.866Z,23.85
2022-09-04T13:58:51.297Z,23.50
2022-09-04T14:01:23.818Z,23.77
2022-09-04T14:04:04.876Z,23.59
2022-09-04T14:06:33.040Z,23.67
2022-09-04T14:09:04.599Z,23.78
2022-09-04T14:11:41.797Z,23.77
2022-09-04T14:14:18.644Z,23.78
2022-09-04T14:16:45.518Z,23.42
2022-09-04T14:19:33.099Z,23.37
2022-09-04T14:22:24.672Z,23.41
2022-09-04T14:25:12.355Z,23.26
2022-09-04T14:27:43.773Z,23.27
2022-09-04T14:30:18.538Z,23.20
2022-09-04T14:33:07.403Z,23.44
2022-09-04T14:35:47.686Z,23.35
2022-09-04T14:38:41.263Z,23.67
2022-09-04T14:41:14.313Z,23.59
2022-09-04T14:44:03.867Z,23.52
2022-09-04T14:46:38.331Z,23.62
2022-09-04T14:49:08.899Z,23.50
2022-09-04T14:51:40.048Z,23.39
2022-09-04T14:54:09.563Z,23.44
2022-09-04T14:56:36.209Z,23.77
2022-09-04T14:59:20.727Z,23.68
2022-09-04T15:02:08.867Z,23.48
2022-09-04T15:05:24.527Z,22.93
2022-09-04T15:08:03.369Z,22.77
2022-09-04T15:10:36.778Z,22.53
2022-09-04T15:13:28.175Z,22.43
2022-09-04T15:16:19.427Z,22.38
2022-09-04T15:18:55.377Z,22.28
2022-09-04T15:21:34.447Z,22.14
2022-09-04T15:24:11.971Z,22.03
2022-09-04T15:27:00.129Z,21.91
2022-09-04T15:30:02.785Z,21.78
2022-09-04T15:32:43.058Z,21.64
2022-09-04T15:35:33.631Z,21.66
2022-09-04T15:38:21.937Z,21.62
2022-09-04T15:41:15.499Z,21.52
2022-09-04T15:43:45.627Z,21.23
2022-09-04T15:46:28.817Z,21.27
2022-09-04T15:48:55.405Z,21.22
2022-09-04T15:51:48.903Z,21.23
2022-09-04T15:54:27.153Z,21.25
2022-09-04T15:56:57.313Z,21.19
2022-09-04T15:59:29.886Z,21.13
2022-09-04T16:02:12.584Z,20.97
2022-09-04T16:05:03.478Z,20.93
2022-09-04T16:07:40.403Z,20.95
2022-09-04T16:10:13.575Z,20.85
2022-09-04T16:13:05.334Z,20.74
2022-09-04T16:15:37.891Z,20.66
2022-09-04T16:18:51.295Z,20.48
2022-09-04T16:21:31.902Z,20.23
2022-09-04T16:24:08.140Z,20.16
2022-09-04T16:26:35.229Z,19.94
2022-09-04T16:29:15.421Z,19.89
2022-09-04T16:31:50.664Z,19.75
2022-09-04T16:34:29.588Z,19.50
2022-09-04T16:37:10.694Z,19.37
2022-09-04T16:39:55.321Z,19.31
2022-09-04T16:42:44.407Z,19.27
2022-09-04T16:45:20.456Z,19.24
2022-09-04T16:47:59.182Z,19.06
2022-09-04T16:51:41.487Z,19.01
2022-09-04T16:54:11.237Z,18.95
2022-09-04T16:56:40.547Z,18.79
2022-09-04T16:59:23.577Z,18.74
2022-09-04T17:02:10.482Z,18.73
2022-09-04T17:04:40.399Z,18.67
2022-09-04T17:07:08.043Z,18.58
2022-09-04T17:09:48.029Z,18.53
2022-09-04T17:12:37.995Z,18.48
2022-09-04T17:15:15.377Z,18.46
2022-09-04T17:17:45.873Z,18.33
2022-09-04T17:20:22.790Z,18.19
2022-09-04T17:28:59.149Z,17.97
2022-09-04T17:29:13.815Z,17.86
2022-09-04T17:29:41.660Z,17.77
2022-09-04T17:32:30.621Z,17.78
2022-09-04T17:40:33.131Z,17.78
2022-09-04T17:41:33.254Z,17.68
2022-09-04T17:41:35.844Z,17.65
2022-09-04T17:44:25.393Z,17.75
2022-09-04T17:47:31.848Z,17.83
2022-09-04T17:50:00.496Z,17.86
2022-09-04T17:52:53.569Z,17.92
2022-09-04T17:55:21.221Z,17.96
2022-09-04T17:58:03.533Z,17.94
2022-09-04T18:00:38.548Z,18.04
2022-09-04T18:03:22.469Z,18.11
2022-09-04T18:05:53.152Z,18.14
2022-09-04T18:08:51.403Z,18.13
2022-09-04T18:11:29.560Z,18.16
2022-09-04T18:14:11.332Z,18.09
2022-09-04T18:16:40.600Z,18.13
2022-09-04T18:19:32.297Z,18.19
2022-09-04T18:22:33.324Z,18.17
2022-09-04T18:25:17.336Z,18.14
2022-09-04T18:28:11.512Z,18.17
2022-09-04T18:37:10.885Z,18.02
2022-09-04T18:37:21.859Z,17.84
2022-09-04T18:37:44.725Z,17.81
2022-09-04T18:41:54.809Z,17.81
2022-09-04T18:50:23.722Z,17.70
2022-09-04T18:50:40.775Z,17.54
2022-09-04T18:50:50.079Z,17.63
2022-09-04T18:52:04.738Z,17.50
2022-09-04T18:54:41.720Z,17.52
2022-09-04T18:57:50.582Z,17.36
2022-09-04T19:00:39.949Z,17.24
2022-09-04T19:03:22.096Z,17.08
2022-09-04T19:05:50.808Z,17.19
2022-09-04T19:08:32.938Z,17.22
2022-09-04T19:11:03.206Z,17.24
2022-09-04T19:14:15.455Z,17.16
2022-09-04T19:16:53.630Z,17.18
2022-09-04T19:19:23.498Z,17.20
2022-09-04T19:22:09.582Z,17.25
2022-09-04T19:24:41.463Z,17.26
2022-09-04T19:27:37.211Z,17.24
2022-09-04T19:30:19.900Z,17.22
2022-09-04T19:33:02.987Z,17.32
2022-09-04T19:35:42.905Z,17.34
2022-09-04T19:45:03.670Z,17.21
2022-09-04T19:46:01.661Z,17.44
2022-09-04T19:46:26.593Z,17.56
2022-09-04T19:47:51.358Z,17.65
2022-09-04T19:53:20.305Z,17.70
2022-09-04T19:53:37.653Z,17.75
2022-09-04T19:56:05.348Z,17.79
2022-09-04T19:58:46.853Z,17.83
2022-09-04T20:01:23.064Z,17.84
2022-09-04T20:04:11.052Z,17.83
2022-09-04T20:06:47.753Z,17.60
2022-09-04T20:09:26.436Z,17.73
2022-09-04T20:12:03.017Z,17.76
2022-09-04T20:14:42.324Z,17.70
2022-09-04T20:17:18.266Z,17.60
2022-09-04T20:19:52.052Z,17.65
2022-09-04T20:22:35.040Z,17.64
2022-09-04T20:25:07.564Z,17.61
2022-09-04T20:27:46.237Z,17.57
2022-09-04T20:30:25.495Z,17.51
2022-09-04T20:33:04.185Z,17.59
2022-09-04T20:35:35.326Z,17.49
2022-09-04T20:38:45.596Z,17.44
2022-09-04T20:41:30.452Z,17.40
2022-09-04T20:44:15.824Z,17.37
2022-09-04T20:52:49.427Z,17.36
2022-09-04T20:53:04.638Z,17.31
2022-09-04T20:53:21.006Z,17.25
2022-09-04T20:56:55.564Z,17.17
2022-09-04T21:03:06.294Z,17.13
2022-09-04T21:03:20.093Z,17.12
2022-09-04T21:05:40.356Z,17.06
2022-09-04T21:08:21.529Z,17.08
2022-09-04T21:11:39.149Z,17.13
2022-09-04T21:14:15.213Z,17.10
2022-09-04T21:17:29.849Z,17.23
2022-09-04T21:20:59.981Z,17.23
2022-09-04T21:23:54.423Z,17.25
2022-09-04T21:26:36.617Z,17.32
2022-09-04T21:29:15.608Z,17.31
2022-09-04T21:31:48.046Z,17.34
2022-09-04T21:34:53.962Z,17.30
2022-09-04T21:37:40.179Z,17.39
2022-09-04T21:40:50.159Z,17.39
2022-09-04T21:43:12.238Z,17.43
2022-09-04T21:46:06.162Z,17.50
2022-09-04T21:48:52.750Z,17.49
2022-09-04T21:51:35.499Z,17.52
2022-09-04T21:54:37.803Z,17.49
2022-09-04T22:02:27.318Z,17.54
2022-09-04T22:02:41.884Z,17.54
2022-09-04T22:03:05.458Z,17.57
2022-09-04T22:05:47.499Z,17.54
2022-09-04T22:13:27.431Z,17.56
2022-09-04T22:13:38.741Z,17.56
2022-09-04T22:14:48.337Z,17.56
2022-09-04T22:17:39.447Z,17.56
2022-09-04T22:20:17.762Z,17.58
2022-09-04T22:23:09.810Z,17.64
2022-09-04T22:25:39.884Z,17.59
2022-09-04T22:28:15.214Z,17.58
2022-09-04T22:31:03.818Z,17.56
2022-09-04T22:34:15.211Z,17.56
2022-09-04T22:37:16.584Z,17.40
2022-09-04T22:40:04.709Z,17.52
2022-09-04T22:42:46.255Z,17.54
2022-09-04T22:45:44.247Z,17.52
2022-09-04T22:48:31.493Z,17.53
2022-09-04T22:51:09.062Z,17.47
2022-09-04T22:54:12.966Z,17.45
2022-09-04T22:57:08.319Z,17.45
2022-09-04T22:59:34.916Z,17.32
2022-09-04T23:03:07.179Z,17.31
2022-09-04T23:05:46.974Z,17.28
2022-09-04T23:13:46.717Z,17.25
2022-09-04T23:13:53.395Z,17.18
2022-09-04T23:14:45.911Z,17.20
2022-09-04T23:17:33.492Z,17.21
2022-09-04T23:26:35.287Z,17.29
2022-09-04T23:26:46.442Z,17.22
2022-09-04T23:27:01.096Z,17.11
2022-09-04T23:30:04.829Z,16.98
2022-09-04T23:32:53.991Z,16.74
2022-09-04T23:35:58.103Z,16.48
2022-09-04T23:38:46.680Z,16.34
2022-09-04T23:41:52.929Z,16.17
2022-09-04T23:44:44.654Z,16.02
2022-09-04T23:47:24.750Z,15.75
2022-09-04T23:50:32.480Z,15.73
2022-09-04T23:53:20.391Z,15.73
2022-09-04T23:56:19.047Z,15.60
2022-09-04T23:59:26.717Z,15.56
